Time;durP1;ratioP1;P1;durP2;ratioP2;P2;SDS_P1;SDS_P2;PMS_P1;PMS_P2;Temp;Humidity;BMP_temperature;BMP_pressure;BME280_temperature;BME280_humidity;BME280_pressure;Samples;Min_cycle;Max_cycle;Signal;HPM_P1;HPM_P2
2022/06/23 00:00:50;;;;;;;6.70;3.80;;;16.70;99.90;;;;;;5046089;28;20455;-56
2022/06/23 00:03:22;;;;;;;7.43;3.27;;;16.70;99.90;;;;;;5051667;28;20991;-58
2022/06/23 00:05:55;;;;;;;4.77;3.73;;;16.70;99.90;;;;;;5053195;28;20485;-57
2022/06/23 00:08:22;;;;;;;3.83;3.17;;;16.60;99.90;;;;;;5057638;28;23310;-57
2022/06/23 00:10:51;;;;;;;5.07;3.40;;;16.60;99.90;;;;;;5035318;28;20494;-57
2022/06/23 00:13:25;;;;;;;10.10;3.93;;;16.60;99.90;;;;;;5051518;28;20530;-57
2022/06/23 00:15:55;;;;;;;6.67;4.10;;;16.50;99.90;;;;;;5059645;28;20461;-57
2022/06/23 00:18:25;;;;;;;19.33;4.30;;;16.50;99.90;;;;;;5048718;28;20986;-57
2022/06/23 00:20:55;;;;;;;10.67;4.13;;;16.50;99.90;;;;;;5049016;28;20465;-57
2022/06/23 00:23:25;;;;;;;5.50;3.50;;;16.50;99.90;;;;;;5045261;28;20466;-57
2022/06/23 00:25:55;;;;;;;5.07;3.70;;;16.40;99.90;;;;;;5055050;28;20539;-58
2022/06/23 00:28:26;;;;;;;5.47;3.63;;;16.40;99.90;;;;;;5058526;28;20488;-57
2022/06/23 00:30:57;;;;;;;7.73;3.53;;;16.30;99.90;;;;;;5039117;28;20532;-57
2022/06/23 00:33:27;;;;;;;4.40;3.23;;;16.30;99.90;;;;;;5046184;28;20458;-58
2022/06/23 00:35:55;;;;;;;8.77;3.90;;;16.20;99.90;;;;;;5047743;28;20462;-57
2022/06/23 00:38:27;;;;;;;11.00;3.70;;;16.20;99.90;;;;;;5058542;28;20481;-56
2022/06/23 00:40:56;;;;;;;3.40;3.10;;;16.20;99.90;;;;;;5050619;28;20457;-58
2022/06/23 00:43:23;;;;;;;4.17;3.30;;;16.20;99.90;;;;;;5046559;28;20964;-57
2022/06/23 00:45:56;;;;;;;7.83;3.90;;;16.20;99.90;;;;;;5044864;28;20482;-58
2022/06/23 00:48:27;;;;;;;7.03;3.93;;;16.10;99.90;;;;;;5042298;28;20527;-57
2022/06/23 00:51:00;;;;;;;7.33;4.53;;;16.00;99.90;;;;;;5048023;28;20461;-58
2022/06/23 00:53:31;;;;;;;9.70;3.90;;;16.00;99.90;;;;;;5044398;28;20494;-56
2022/06/23 00:56:05;;;;;;;7.70;3.27;;;16.00;99.90;;;;;;5048067;28;20506;-57
2022/06/23 00:58:40;;;;;;;7.60;3.90;;;15.90;99.90;;;;;;5044145;28;20486;-57
2022/06/23 01:01:16;;;;;;;4.93;3.57;;;15.90;99.90;;;;;;5039905;28;20822;-57
2022/06/23 01:03:51;;;;;;;5.67;3.80;;;15.80;99.90;;;;;;5056944;28;20878;-57
2022/06/23 01:06:24;;;;;;;5.67;3.80;;;15.80;99.90;;;;;;5047134;28;20485;-57
2022/06/23 01:08:54;;;;;;;8.20;3.93;;;15.80;99.90;;;;;;5048578;28;20490;-57
2022/06/23 01:11:30;;;;;;;5.20;4.10;;;15.80;99.90;;;;;;5049029;28;20474;-57
2022/06/23 01:14:06;;;;;;;4.60;3.97;;;15.70;99.90;;;;;;5050756;28;20453;-57
2022/06/23 01:16:43;;;;;;;8.20;4.10;;;15.60;99.90;;;;;;5054548;28;20465;-57
2022/06/23 01:19:44;;;;;;;9.60;4.87;;;15.60;99.90;;;;;;5045297;28;20480;-58
2022/06/23 01:22:20;;;;;;;7.77;4.20;;;15.40;99.90;;;;;;5042410;28;20504;-57
2022/06/23 01:24:55;;;;;;;5.60;3.40;;;15.40;99.90;;;;;;5052446;28;20523;-57
2022/06/23 01:27:31;;;;;;;5.73;3.87;;;15.40;99.90;;;;;;5053944;28;20464;-57
2022/06/23 01:30:05;;;;;;;5.53;3.63;;;15.30;99.90;;;;;;5040931;28;20477;-57
2022/06/23 01:32:42;;;;;;;6.47;4.10;;;15.30;99.90;;;;;;5044478;28;20892;-57
2022/06/23 01:35:15;;;;;;;6.20;4.13;;;15.20;99.90;;;;;;5063569;28;20449;-57
2022/06/23 01:37:47;;;;;;;7.93;3.80;;;15.20;99.90;;;;;;5051551;28;20520;-57
2022/06/23 01:40:20;;;;;;;6.20;3.93;;;15.20;99.90;;;;;;5053172;28;20468;-57
2022/06/23 01:42:51;;;;;;;7.17;4.20;;;15.10;99.90;;;;;;5046814;28;20894;-57
2022/06/23 01:45:25;;;;;;;10.53;4.30;;;15.00;99.90;;;;;;5043841;28;20830;-58
2022/06/23 01:47:59;;;;;;;3.83;3.20;;;15.00;99.90;;;;;;5048850;28;20469;-57
2022/06/23 01:50:50;;;;;;;5.83;3.73;;;14.90;99.90;;;;;;5047788;28;20484;-57
2022/06/23 01:53:24;;;;;;;6.90;3.93;;;14.90;99.90;;;;;;5039650;28;20467;-57
2022/06/23 01:56:18;;;;;;;4.73;4.33;;;14.90;99.90;;;;;;5043365;28;20458;-58
2022/06/23 01:58:51;;;;;;;9.40;3.87;;;14.80;99.90;;;;;;5042343;28;20473;-61
2022/06/23 02:01:25;;;;;;;4.47;3.60;;;14.90;99.90;;;;;;5040004;28;20465;-57
2022/06/23 02:04:01;;;;;;;8.33;4.73;;;14.90;99.90;;;;;;5048238;28;20902;-57
2022/06/23 02:06:31;;;;;;;6.00;4.10;;;14.90;99.90;;;;;;5047289;28;20981;-57
2022/06/23 02:09:06;;;;;;;5.43;4.30;;;14.80;99.90;;;;;;5039301;28;20497;-50
2022/06/23 02:11:37;;;;;;;8.10;4.90;;;14.70;99.90;;;;;;5045830;28;20526;-50
2022/06/23 02:14:13;;;;;;;10.40;4.20;;;14.60;99.90;;;;;;5041395;28;20578;-50
2022/06/23 02:16:44;;;;;;;13.33;5.13;;;14.60;99.90;;;;;;5046054;28;20446;-50
2022/06/23 02:19:18;;;;;;;9.20;4.50;;;14.50;99.90;;;;;;5040486;28;20488;-50
2022/06/23 02:21:49;;;;;;;8.53;5.07;;;14.60;99.90;;;;;;5038152;28;21261;-50
2022/06/23 02:24:19;;;;;;;6.80;4.17;;;14.60;99.90;;;;;;5042254;28;20976;-50
2022/06/23 02:27:00;;;;;;;4.90;4.20;;;14.50;99.90;;;;;;5048595;28;20491;-51
2022/06/23 02:29:31;;;;;;;5.33;4.00;;;14.40;99.90;;;;;;5040614;28;20547;-50
2022/06/23 02:32:06;;;;;;;7.53;4.20;;;14.40;99.90;;;;;;5040409;28;20459;-50
2022/06/23 02:34:37;;;;;;;10.40;5.03;;;14.30;99.90;;;;;;5049647;28;20881;-50
2022/06/23 02:37:28;;;;;;;4.33;3.93;;;14.30;99.90;;;;;;5044701;28;20458;-50
2022/06/23 02:39:58;;;;;;;12.13;4.60;;;14.30;99.90;;;;;;5051695;28;20478;-50
2022/06/23 02:42:31;;;;;;;8.30;4.60;;;14.30;99.70;;;;;;5041839;28;20462;-50
2022/06/23 02:45:23;;;;;;;4.70;4.20;;;14.20;99.90;;;;;;5043210;28;20518;-49
2022/06/23 02:48:14;;;;;;;8.50;4.20;;;14.20;99.90;;;;;;5050438;28;20515;-51
2022/06/23 02:50:59;;;;;;;10.00;4.50;;;14.20;99.90;;;;;;5034931;28;20458;-50
2022/06/23 02:53:39;;;;;;;9.20;4.63;;;14.20;99.90;;;;;;5047620;28;20462;-50
2022/06/23 02:56:40;;;;;;;9.13;4.73;;;14.30;99.90;;;;;;5045767;28;20600;-50
2022/06/23 02:59:11;;;;;;;7.03;4.07;;;14.20;99.90;;;;;;5062635;28;20481;-50
2022/06/23 03:01:45;;;;;;;5.80;4.23;;;14.20;99.90;;;;;;5051747;28;20520;-50
2022/06/23 03:04:18;;;;;;;7.23;4.53;;;14.10;99.90;;;;;;5047970;28;20523;-50
2022/06/23 03:06:48;;;;;;;8.57;6.43;;;14.10;99.90;;;;;;5050404;28;20485;-50
2022/06/23 03:09:23;;;;;;;7.53;4.83;;;14.10;98.00;;;;;;5050579;28;20914;-50
2022/06/23 03:11:59;;;;;;;5.60;4.50;;;14.10;94.90;;;;;;5058800;28;20462;-52
2022/06/23 03:14:35;;;;;;;5.33;4.80;;;14.10;91.60;;;;;;5051573;28;20450;-50
2022/06/23 03:17:12;;;;;;;5.50;4.97;;;14.00;94.00;;;;;;5044172;28;20458;-50
2022/06/23 03:19:46;;;;;;;7.17;4.60;;;14.00;91.90;;;;;;5046406;28;21093;-50
2022/06/23 03:22:21;;;;;;;8.77;5.47;;;14.10;93.90;;;;;;5042430;28;20469;-50
2022/06/23 03:24:54;;;;;;;11.83;6.37;;;14.10;91.30;;;;;;5050955;28;20483;-50
2022/06/23 03:27:27;;;;;;;6.67;5.43;;;14.00;93.70;;;;;;5049891;28;21038;-50
2022/06/23 03:29:59;;;;;;;6.20;4.60;;;14.00;86.80;;;;;;5050359;28;20481;-49
2022/06/23 03:32:29;;;;;;;7.13;4.43;;;14.00;83.00;;;;;;5048144;28;20469;-50
2022/06/23 03:35:03;;;;;;;8.80;4.93;;;13.90;84.20;;;;;;5052341;28;20515;-50
2022/06/23 03:37:38;;;;;;;5.90;5.30;;;14.00;87.50;;;;;;5049811;28;20504;-50
2022/06/23 03:43:10;;;;;;;7.18;4.68;;;14.00;87.40;;;;;;5046777;28;20800;-50
2022/06/23 03:45:41;;;;;;;6.20;5.00;;;14.00;83.70;;;;;;5048125;28;20219;-50
2022/06/23 03:48:13;;;;;;;8.47;5.63;;;14.00;84.20;;;;;;5054188;28;20523;-50
2022/06/23 03:50:48;;;;;;;12.17;5.30;;;14.00;81.40;;;;;;5044118;28;20948;-50
2022/06/23 03:53:20;;;;;;;12.70;5.70;;;14.10;88.40;;;;;;5047664;28;20922;-50
2022/06/23 03:55:50;;;;;;;7.20;4.80;;;14.10;84.50;;;;;;5053524;28;20811;-49
2022/06/23 03:58:23;;;;;;;6.30;4.60;;;14.20;90.50;;;;;;5049470;28;20476;-50
2022/06/23 04:00:57;;;;;;;6.90;4.73;;;14.10;87.00;;;;;;5048827;28;20516;-50
2022/06/23 04:03:29;;;;;;;5.40;4.77;;;14.20;87.30;;;;;;5047445;28;20910;-50
2022/06/23 04:06:30;;;;;;;7.60;5.20;;;14.20;84.40;;;;;;5044185;28;20485;-49
2022/06/23 04:09:01;;;;;;;8.70;5.93;;;14.30;83.60;;;;;;5046101;28;20485;-49
2022/06/23 04:11:44;;;;;;;8.43;5.10;;;14.30;89.30;;;;;;5044739;28;20462;-49
2022/06/23 04:14:14;;;;;;;7.87;5.87;;;14.40;87.40;;;;;;5044772;28;20856;-50
2022/06/23 04:16:41;;;;;;;9.13;5.77;;;14.50;92.20;;;;;;5041365;28;20541;-50
2022/06/23 04:19:22;;;;;;;5.23;4.47;;;14.50;89.00;;;;;;5047657;28;20896;-50
2022/06/23 04:21:57;;;;;;;5.90;5.30;;;14.60;92.30;;;;;;5046764;28;20458;-50
2022/06/23 04:24:26;;;;;;;6.97;5.20;;;14.70;93.60;;;;;;5050156;28;20548;-49
2022/06/23 04:26:57;;;;;;;9.63;4.93;;;14.70;98.80;;;;;;5044668;28;20493;-53
2022/06/23 04:29:29;;;;;;;6.20;4.20;;;14.80;99.30;;;;;;5047128;28;20478;-49
2022/06/23 04:32:00;;;;;;;6.17;5.00;;;14.80;99.90;;;;;;5060750;28;20479;-50
2022/06/23 04:34:35;;;;;;;8.67;5.30;;;14.90;99.90;;;;;;5050190;28;20507;-50
2022/06/23 04:37:04;;;;;;;13.90;5.87;;;14.90;99.90;;;;;;5048834;28;20457;-49
2022/06/23 04:39:35;;;;;;;8.90;5.30;;;15.00;99.90;;;;;;5046871;28;20473;-50
2022/06/23 04:42:10;;;;;;;6.93;4.93;;;15.10;99.90;;;;;;5046368;28;20461;-49
2022/06/23 04:44:44;;;;;;;4.63;4.20;;;15.10;99.90;;;;;;5049765;28;20829;-51
2022/06/23 04:47:16;;;;;;;9.83;4.57;;;15.20;99.90;;;;;;5045164;28;20535;-51
2022/06/23 04:49:47;;;;;;;7.73;4.20;;;15.20;99.90;;;;;;5039969;28;20821;-50
2022/06/23 04:52:20;;;;;;;7.70;4.93;;;15.30;99.90;;;;;;5043868;28;20453;-49
2022/06/23 04:54:53;;;;;;;6.90;4.47;;;15.40;99.90;;;;;;5050633;28;20476;-50
2022/06/23 04:57:25;;;;;;;5.87;4.30;;;15.50;99.90;;;;;;5046104;28;20493;-50
2022/06/23 04:59:54;;;;;;;6.80;4.20;;;15.60;99.90;;;;;;5049791;28;20906;-50
2022/06/23 05:02:27;;;;;;;4.87;3.63;;;15.70;99.90;;;;;;5044312;28;20515;-50
2022/06/23 05:05:01;;;;;;;4.40;4.00;;;15.80;99.90;;;;;;5055937;28;20461;-50
2022/06/23 05:07:34;;;;;;;9.20;4.07;;;15.90;99.90;;;;;;5041540;28;20854;-51
2022/06/23 05:10:04;;;;;;;5.77;4.00;;;15.90;99.90;;;;;;5044815;28;20482;-52
2022/06/23 05:12:34;;;;;;;9.70;3.90;;;16.00;99.90;;;;;;5038315;28;20920;-51
2022/06/23 05:15:07;;;;;;;4.63;3.83;;;16.10;99.90;;;;;;5043200;28;20462;-51
2022/06/23 05:17:36;;;;;;;4.90;4.20;;;16.20;99.90;;;;;;5041924;28;20458;-50
2022/06/23 05:20:06;;;;;;;3.83;3.53;;;16.30;99.90;;;;;;5040298;28;20478;-51
2022/06/23 05:22:37;;;;;;;12.23;4.20;;;16.40;99.90;;;;;;5043340;28;20826;-51
2022/06/23 05:25:25;;;;;;;5.80;4.20;;;16.50;99.90;;;;;;5042092;28;20882;-50
2022/06/23 05:27:52;;;;;;;6.37;4.07;;;16.60;99.90;;;;;;5047135;28;20536;-51
2022/06/23 05:30:27;;;;;;;6.73;4.23;;;16.70;99.90;;;;;;5042564;28;20450;-51
2022/06/23 05:32:57;;;;;;;5.90;4.00;;;16.80;99.90;;;;;;5040448;28;21012;-50
2022/06/23 05:35:27;;;;;;;6.30;4.10;;;16.80;99.90;;;;;;5044884;28;20517;-50
2022/06/23 05:38:01;;;;;;;4.10;3.30;;;16.90;99.50;;;;;;5040429;28;20463;-51
2022/06/23 05:40:33;;;;;;;6.33;4.10;;;17.00;99.90;;;;;;5047456;28;20954;-51
2022/06/23 05:43:01;;;;;;;3.57;3.27;;;17.00;73.20;;;;;;5035056;28;20551;-51
2022/06/23 05:45:31;;;;;;;11.10;3.83;;;17.20;86.00;;;;;;5038266;28;20549;-50
2022/06/23 05:48:00;;;;;;;4.53;3.73;;;17.30;25.00;;;;;;5038402;28;20481;-50
2022/06/23 05:50:33;;;;;;;6.47;3.70;;;17.40;29.50;;;;;;5043468;28;20523;-50
2022/06/23 05:53:07;;;;;;;4.63;4.20;;;17.40;33.10;;;;;;5038970;28;20509;-50
2022/06/23 05:55:40;;;;;;;7.00;3.40;;;17.50;36.90;;;;;;5047233;28;20466;-51
2022/06/23 05:58:15;;;;;;;4.97;3.67;;;17.60;39.70;;;;;;5046777;28;21061;-51
2022/06/23 06:00:47;;;;;;;8.97;4.13;;;17.60;40.50;;;;;;5043933;28;20456;-50
2022/06/23 06:03:19;;;;;;;5.67;3.97;;;17.70;44.30;;;;;;5045408;28;20466;-51
2022/06/23 06:05:48;;;;;;;3.87;3.47;;;17.80;47.30;;;;;;5047490;28;20461;-50
2022/06/23 06:08:20;;;;;;;7.83;4.07;;;17.90;52.10;;;;;;5048986;28;20544;-51
2022/06/23 06:10:47;;;;;;;9.37;4.00;;;18.00;56.10;;;;;;5046476;28;20520;-50
2022/06/23 06:13:18;;;;;;;6.43;3.47;;;18.10;58.20;;;;;;5045649;28;20549;-51
2022/06/23 06:15:49;;;;;;;4.70;3.77;;;18.20;62.80;;;;;;5049778;28;20492;-50
2022/06/23 06:18:24;;;;;;;5.23;3.13;;;18.30;62.00;;;;;;5046185;28;20478;-50
2022/06/23 06:20:53;;;;;;;6.80;3.30;;;18.40;64.20;;;;;;5043359;28;20528;-50
2022/06/23 06:23:29;;;;;;;4.20;3.50;;;18.40;66.60;;;;;;5042960;28;22160;-51
2022/06/23 06:25:56;;;;;;;4.07;3.70;;;18.60;68.40;;;;;;5040594;28;21004;-50
2022/06/23 06:28:25;;;;;;;3.70;2.93;;;18.60;72.50;;;;;;5039838;28;20486;-50
2022/06/23 06:30:59;;;;;;;7.33;4.43;;;18.70;72.40;;;;;;5040496;28;20888;-51
2022/06/23 06:33:35;;;;;;;5.67;3.63;;;18.70;75.10;;;;;;5039480;28;20511;-50
2022/06/23 06:36:01;;;;;;;5.03;3.27;;;18.80;79.30;;;;;;5043549;28;20458;-50
2022/06/23 06:38:31;;;;;;;9.87;3.57;;;18.90;82.00;;;;;;5042206;28;20539;-51
2022/06/23 06:40:59;;;;;;;5.77;3.30;;;19.00;82.50;;;;;;5037790;28;20535;-50
2022/06/23 06:43:30;;;;;;;5.23;3.33;;;19.10;84.20;;;;;;5042197;28;20454;-50
2022/06/23 06:45:58;;;;;;;4.20;3.10;;;19.20;93.60;;;;;;5048599;28;20457;-50
2022/06/23 06:48:30;;;;;;;6.40;4.07;;;19.30;93.50;;;;;;5039120;28;20496;-52
2022/06/23 06:51:01;;;;;;;5.97;4.00;;;19.40;94.20;;;;;;5043709;28;20454;-52
2022/06/23 06:53:32;;;;;;;3.73;3.30;;;19.50;94.30;;;;;;5042913;28;20469;-50
2022/06/23 06:56:05;;;;;;;4.10;3.37;;;19.50;95.80;;;;;;5042416;28;20461;-50
2022/06/23 06:58:37;;;;;;;4.13;3.50;;;19.60;97.70;;;;;;5042962;28;20473;-51
2022/06/23 07:01:07;;;;;;;7.30;3.10;;;19.60;99.90;;;;;;5043444;28;20963;-51
2022/06/23 07:03:36;;;;;;;5.50;3.47;;;19.80;99.90;;;;;;5044873;28;20461;-50
2022/06/23 07:06:07;;;;;;;13.50;2.80;;;19.90;99.90;;;;;;5045587;28;20458;-50
2022/06/23 07:08:40;;;;;;;5.70;3.97;;;19.90;99.90;;;;;;5041198;28;21064;-51
2022/06/23 07:11:14;;;;;;;12.30;3.90;;;20.00;99.90;;;;;;5039396;28;20462;-50
2022/06/23 07:13:47;;;;;;;6.30;3.50;;;20.00;99.90;;;;;;5046096;28;20458;-50
2022/06/23 07:16:18;;;;;;;9.07;3.93;;;20.10;99.90;;;;;;5043490;28;20462;-50
2022/06/23 07:18:51;;;;;;;4.00;2.93;;;20.20;99.90;;;;;;5043154;28;20478;-51
2022/06/23 07:21:24;;;;;;;9.60;3.30;;;20.30;99.90;;;;;;5040884;28;20468;-51
2022/06/23 07:23:56;;;;;;;4.47;3.53;;;20.40;99.90;;;;;;5040890;28;20535;-50
2022/06/23 07:26:38;;;;;;;3.73;3.43;;;20.50;99.90;;;;;;5045262;28;20454;-50
2022/06/23 07:29:18;;;;;;;4.83;3.77;;;20.50;99.90;;;;;;5038550;28;20478;-50
2022/06/23 07:31:54;;;;;;;3.63;3.33;;;20.60;99.90;;;;;;5041396;28;20488;-50
2022/06/23 07:34:24;;;;;;;8.13;4.30;;;20.70;99.90;;;;;;5039241;28;20462;-50
2022/06/23 07:36:56;;;;;;;7.87;3.77;;;20.80;99.90;;;;;;5039409;28;20948;-50
2022/06/23 07:39:29;;;;;;;5.73;3.27;;;21.00;99.90;;;;;;5040220;28;20482;-51
2022/06/23 07:42:01;;;;;;;7.73;3.67;;;21.10;99.90;;;;;;5041962;28;21097;-51
2022/06/23 07:44:31;;;;;;;6.10;3.47;;;21.20;99.90;;;;;;5046146;28;20493;-51
2022/06/23 07:46:58;;;;;;;7.93;2.90;;;21.30;99.90;;;;;;5045935;28;20535;-50
2022/06/23 07:49:26;;;;;;;4.63;2.90;;;21.40;99.90;;;;;;5044305;28;20481;-50
2022/06/23 07:51:55;;;;;;;5.43;3.60;;;21.50;99.90;;;;;;5045009;28;21019;-50
2022/06/23 07:54:22;;;;;;;4.10;3.50;;;21.50;99.90;;;;;;5045807;28;20458;-50
2022/06/23 07:56:51;;;;;;;3.10;2.77;;;21.60;99.90;;;;;;5046969;28;20455;-50
2022/06/23 07:59:21;;;;;;;7.37;3.43;;;21.60;99.90;;;;;;5045025;28;20493;-50
2022/06/23 08:01:52;;;;;;;7.23;3.87;;;21.80;99.90;;;;;;5044463;28;20462;-51
2022/06/23 08:04:25;;;;;;;3.73;3.40;;;21.90;99.90;;;;;;5041869;28;20520;-50
2022/06/23 08:06:53;;;;;;;4.57;2.90;;;22.00;99.90;;;;;;5041335;28;20499;-50
2022/06/23 08:09:26;;;;;;;8.03;2.67;;;22.10;99.90;;;;;;5041943;28;20485;-50
2022/06/23 08:14:44;;;;;;;3.70;3.40;;;22.40;99.90;;;;;;5040337;28;20576;-54
2022/06/23 08:17:14;;;;;;;3.43;2.70;;;22.50;99.90;;;;;;5041025;28;20508;-54
2022/06/23 08:19:45;;;;;;;2.80;2.60;;;22.50;99.90;;;;;;5042693;28;20497;-53
2022/06/23 08:22:15;;;;;;;7.97;3.40;;;22.70;99.90;;;;;;5044230;28;21075;-55
2022/06/23 08:24:48;;;;;;;9.70;3.83;;;22.80;99.90;;;;;;5044589;28;20454;-55
2022/06/23 08:27:19;;;;;;;2.97;2.77;;;22.80;99.90;;;;;;5049085;28;20475;-54
2022/06/23 08:29:50;;;;;;;4.97;2.70;;;22.90;99.90;;;;;;5046277;28;20473;-54
2022/06/23 08:32:18;;;;;;;6.60;3.50;;;23.00;99.90;;;;;;5050073;28;20446;-55
2022/06/23 08:34:52;;;;;;;4.10;3.00;;;23.20;99.90;;;;;;5043417;28;20464;-54
2022/06/23 08:37:21;;;;;;;4.17;3.83;;;23.30;99.90;;;;;;5042006;28;20524;-55
2022/06/23 08:39:55;;;;;;;10.37;2.93;;;23.50;99.90;;;;;;5049610;28;20547;-54
2022/06/23 08:42:30;;;;;;;4.07;2.93;;;23.50;99.90;;;;;;5040538;28;20492;-55
2022/06/23 08:45:04;;;;;;;5.10;2.50;;;23.60;99.90;;;;;;5041921;28;20461;-55
2022/06/23 08:47:41;;;;;;;5.03;2.80;;;23.70;99.90;;;;;;5043385;28;20524;-53
2022/06/23 08:50:14;;;;;;;4.13;2.80;;;23.90;99.90;;;;;;5040564;28;20470;-54
2022/06/23 08:52:48;;;;;;;4.67;2.60;;;24.00;99.90;;;;;;5038487;28;20875;-55
2022/06/23 08:55:20;;;;;;;3.77;2.63;;;24.10;99.90;;;;;;5047715;28;20527;-54
2022/06/23 08:57:54;;;;;;;2.80;2.30;;;24.10;99.90;;;;;;5040300;28;20455;-54
2022/06/23 09:00:31;;;;;;;16.47;3.33;;;24.20;99.90;;;;;;5045383;28;20484;-54
2022/06/23 09:03:01;;;;;;;4.20;2.30;;;24.30;99.90;;;;;;5044876;28;20450;-55
2022/06/23 09:05:39;;;;;;;2.93;2.00;;;24.40;99.90;;;;;;5042119;28;20536;-53
2022/06/23 09:08:15;;;;;;;2.20;1.50;;;24.50;99.90;;;;;;5043351;28;21077;-55
2022/06/23 09:10:51;;;;;;;1.90;1.80;;;24.50;99.90;;;;;;5044039;28;21012;-55
2022/06/23 09:13:39;;;;;;;4.93;2.80;;;24.60;99.90;;;;;;5041141;28;20507;-54
2022/06/23 09:16:27;;;;;;;2.57;2.13;;;24.80;99.90;;;;;;5045847;28;20519;-55
2022/06/23 09:19:19;;;;;;;2.20;2.00;;;24.90;99.90;;;;;;5047613;28;20562;-55
2022/06/23 09:22:18;;;;;;;2.63;2.10;;;25.00;99.90;;;;;;5043414;28;20542;-55
2022/06/23 09:25:02;;;;;;;4.30;2.27;;;25.10;99.90;;;;;;5040799;28;20519;-56
2022/06/23 09:27:50;;;;;;;1.70;1.60;;;25.10;99.90;;;;;;5041356;28;20617;-54
2022/06/23 09:30:32;;;;;;;3.23;2.33;;;25.20;99.90;;;;;;5048660;28;20462;-54
2022/06/23 09:33:04;;;;;;;2.60;2.03;;;25.30;99.90;;;;;;5048174;28;20449;-55
2022/06/23 09:35:49;;;;;;;2.80;1.77;;;25.40;99.90;;;;;;5044381;28;20951;-54
2022/06/23 09:38:43;;;;;;;3.63;2.03;;;25.60;99.90;;;;;;5048418;28;20478;-54
2022/06/23 09:41:25;;;;;;;5.13;1.70;;;25.70;99.90;;;;;;5037101;28;20516;-54
2022/06/23 09:44:17;;;;;;;2.40;2.03;;;25.80;99.90;;;;;;5045026;28;20462;-54
2022/06/23 09:47:05;;;;;;;5.73;2.00;;;25.90;99.90;;;;;;5044178;28;20876;-54
2022/06/23 09:49:47;;;;;;;2.77;2.03;;;26.00;99.90;;;;;;5041014;28;20486;-54
2022/06/23 09:52:32;;;;;;;1.80;1.53;;;25.90;99.90;;;;;;5046230;28;20548;-55
2022/06/23 09:55:29;;;;;;;2.40;1.83;;;26.00;99.90;;;;;;5039652;28;20454;-53
2022/06/23 09:58:30;;;;;;;3.10;2.20;;;26.10;99.90;;;;;;5046534;28;20457;-54
2022/06/23 10:01:17;;;;;;;4.20;1.40;;;26.20;99.90;;;;;;5040855;28;20463;-54
2022/06/23 10:04:01;;;;;;;4.77;2.40;;;26.30;99.90;;;;;;5034298;28;20455;-55
2022/06/23 10:06:51;;;;;;;2.53;2.17;;;26.40;99.90;;;;;;5034615;28;20955;-54
2022/06/23 10:09:28;;;;;;;1.33;1.33;;;26.50;99.90;;;;;;5041895;28;20540;-54
2022/06/23 10:12:11;;;;;;;5.23;1.67;;;26.60;99.90;;;;;;5044149;28;20486;-55
2022/06/23 10:14:53;;;;;;;2.83;2.00;;;26.80;99.90;;;;;;5041906;28;20462;-54
2022/06/23 10:17:39;;;;;;;1.83;1.73;;;26.80;99.90;;;;;;5044413;28;20539;-55
2022/06/23 10:20:32;;;;;;;1.50;1.40;;;27.00;99.90;;;;;;5038392;28;20517;-54
2022/06/23 10:23:10;;;;;;;4.73;1.40;;;27.10;99.90;;;;;;5041291;28;20956;-54
2022/06/23 10:25:53;;;;;;;2.30;1.83;;;27.20;99.90;;;;;;5038984;28;20463;-54
2022/06/23 10:28:45;;;;;;;2.57;1.73;;;26.90;99.90;;;;;;5043548;28;20912;-55
2022/06/23 10:31:26;;;;;;;3.80;1.40;;;27.00;99.90;;;;;;5027719;28;20465;-54
2022/06/23 10:34:14;;;;;;;1.83;1.73;;;27.00;99.90;;;;;;5043482;28;21016;-54
2022/06/23 10:37:12;;;;;;;1.80;1.40;;;26.90;99.90;;;;;;5043096;28;20987;-52
2022/06/23 10:40:02;;;;;;;1.50;1.50;;;27.00;99.90;;;;;;5040428;28;20470;-54
2022/06/23 10:43:01;;;;;;;4.30;1.70;;;27.00;99.90;;;;;;5043335;28;20469;-54
2022/06/23 10:45:50;;;;;;;2.73;1.30;;;27.20;99.90;;;;;;5039221;28;20462;-55
2022/06/23 10:48:55;;;;;;;2.77;1.70;;;27.30;99.90;;;;;;5037343;28;20521;-53
2022/06/23 10:51:44;;;;;;;4.00;1.73;;;27.50;99.90;;;;;;5038192;28;20465;-54
2022/06/23 10:54:37;;;;;;;1.27;1.10;;;27.60;99.90;;;;;;5038759;28;21282;-54
2022/06/23 10:57:37;;;;;;;2.27;1.43;;;27.70;99.90;;;;;;5040904;28;20467;-55
2022/06/23 11:00:08;;;;;;;3.53;1.50;;;27.70;99.90;;;;;;5037222;28;20547;-53
2022/06/23 11:03:23;;;;;;;1.40;1.30;;;27.70;99.90;;;;;;5044996;28;20458;-53
2022/06/23 11:06:00;;;;;;;2.30;1.83;;;27.70;99.90;;;;;;5046599;28;20488;-55
2022/06/23 11:08:49;;;;;;;9.20;1.63;;;27.80;99.90;;;;;;5041881;28;20536;-55
2022/06/23 11:11:36;;;;;;;3.07;1.40;;;27.90;99.90;;;;;;5043526;28;20461;-53
2022/06/23 11:14:12;;;;;;;1.40;1.30;;;28.00;99.90;;;;;;5038400;28;20461;-55
2022/06/23 11:16:47;;;;;;;1.17;1.13;;;28.00;99.90;;;;;;5043009;28;20504;-54
2022/06/23 11:19:39;;;;;;;1.53;1.43;;;28.10;99.90;;;;;;5039282;28;20528;-55
2022/06/23 11:22:30;;;;;;;1.57;1.40;;;28.10;99.90;;;;;;5043432;28;20459;-54
2022/06/23 11:25:07;;;;;;;5.70;0.93;;;28.30;99.90;;;;;;5045286;28;20512;-54
2022/06/23 11:27:46;;;;;;;3.37;1.37;;;28.40;99.90;;;;;;5044378;28;20458;-54
2022/06/23 11:30:22;;;;;;;4.63;1.60;;;28.40;99.90;;;;;;5042612;28;20489;-54
2022/06/23 11:33:05;;;;;;;3.07;1.70;;;28.40;99.90;;;;;;5041524;28;20486;-54
2022/06/23 11:35:53;;;;;;;1.37;1.27;;;28.40;99.90;;;;;;5043636;28;20458;-54
2022/06/23 11:38:49;;;;;;;5.30;1.30;;;28.40;99.90;;;;;;5048580;28;20513;-55
2022/06/23 11:41:32;;;;;;;4.73;1.67;;;28.40;99.90;;;;;;5046056;28;20466;-55
2022/06/23 11:44:28;;;;;;;3.13;1.50;;;28.40;99.90;;;;;;5043653;28;20454;-54
2022/06/23 11:47:00;;;;;;;3.97;1.80;;;28.40;99.90;;;;;;5049022;28;20975;-53
2022/06/23 11:49:36;;;;;;;3.83;1.73;;;28.60;99.90;;;;;;5043716;28;20490;-54
2022/06/23 11:52:18;;;;;;;3.67;1.63;;;28.50;99.90;;;;;;5039431;28;20463;-54
2022/06/23 11:55:03;;;;;;;2.57;1.47;;;28.40;99.90;;;;;;5048843;28;20518;-54
2022/06/23 11:57:53;;;;;;;2.57;1.53;;;28.60;99.90;;;;;;5037826;28;20979;-55
2022/06/23 12:00:29;;;;;;;12.27;1.33;;;28.80;99.90;;;;;;5043694;28;20520;-54
2022/06/23 12:03:11;;;;;;;2.10;1.33;;;29.00;99.90;;;;;;5044748;28;20461;-54
2022/06/23 12:05:44;;;;;;;3.27;1.63;;;29.00;99.90;;;;;;5043561;28;20888;-54
2022/06/23 12:08:27;;;;;;;4.80;1.70;;;29.20;99.90;;;;;;5048144;28;20509;-55
2022/06/23 12:10:54;;;;;;;5.70;1.73;;;29.10;99.90;;;;;;5039789;28;20544;-55
2022/06/23 12:13:24;;;;;;;17.67;1.37;;;29.00;99.90;;;;;;5046818;28;20509;-55
2022/06/23 12:15:55;;;;;;;2.40;1.50;;;29.00;99.90;;;;;;5041766;28;20454;-55
2022/06/23 12:18:25;;;;;;;3.07;1.70;;;29.00;99.90;;;;;;5049414;28;21002;-55
2022/06/23 12:20:56;;;;;;;1.50;1.20;;;29.00;99.90;;;;;;5042843;28;21005;-55
2022/06/23 12:23:28;;;;;;;1.80;1.50;;;29.00;99.90;;;;;;5043664;28;20480;-54
2022/06/23 12:26:04;;;;;;;9.27;1.90;;;29.00;99.90;;;;;;5043504;28;20454;-54
2022/06/23 12:28:39;;;;;;;5.93;1.83;;;29.10;99.90;;;;;;5044404;28;20544;-54
2022/06/23 12:31:16;;;;;;;4.83;1.47;;;29.20;99.90;;;;;;5047108;28;20461;-54
2022/06/23 12:33:48;;;;;;;1.70;1.60;;;29.40;99.90;;;;;;5045476;28;20508;-53
2022/06/23 12:36:21;;;;;;;5.90;1.50;;;29.30;99.90;;;;;;5046054;28;21137;-54
2022/06/23 12:38:53;;;;;;;7.20;1.47;;;29.40;99.90;;;;;;5044940;28;20478;-55
2022/06/23 12:41:25;;;;;;;8.60;1.70;;;29.50;99.90;;;;;;5039227;28;20470;-54
2022/06/23 12:43:57;;;;;;;2.30;1.53;;;29.60;99.90;;;;;;5043353;28;20453;-55
2022/06/23 12:46:38;;;;;;;3.37;1.67;;;29.50;99.90;;;;;;5040881;28;21541;-54
2022/06/23 12:49:31;;;;;;;1.70;1.60;;;29.50;99.90;;;;;;5041752;28;20537;-55
2022/06/23 12:52:09;;;;;;;5.70;1.93;;;29.50;99.90;;;;;;5043214;28;20453;-54
2022/06/23 12:55:12;;;;;;;1.77;1.30;;;29.60;99.90;;;;;;5046349;28;20461;-55
2022/06/23 12:57:53;;;;;;;3.80;1.83;;;29.70;99.90;;;;;;5045422;28;20569;-55
2022/06/23 13:00:28;;;;;;;1.47;1.37;;;29.80;99.90;;;;;;5047809;28;20458;-54
2022/06/23 13:03:00;;;;;;;1.40;1.30;;;29.70;99.90;;;;;;5049540;28;20855;-54
2022/06/23 13:05:32;;;;;;;5.77;1.93;;;29.70;99.90;;;;;;5048168;28;20470;-53
2022/06/23 13:08:02;;;;;;;1.40;1.30;;;29.70;99.90;;;;;;5043038;28;20485;-55
2022/06/23 13:10:36;;;;;;;1.70;1.60;;;29.60;99.90;;;;;;5049147;28;20485;-55
2022/06/23 13:13:09;;;;;;;2.90;1.10;;;29.60;99.90;;;;;;5045304;28;20872;-55
2022/06/23 13:15:44;;;;;;;1.30;1.20;;;29.70;99.90;;;;;;5044727;28;21012;-55
2022/06/23 13:18:19;;;;;;;1.67;1.57;;;29.80;99.90;;;;;;5046312;28;20512;-55
2022/06/23 13:20:49;;;;;;;5.33;1.57;;;29.70;99.90;;;;;;5049555;28;20461;-55
2022/06/23 13:23:18;;;;;;;1.63;1.43;;;29.80;99.90;;;;;;5047651;28;20484;-55
2022/06/23 13:25:51;;;;;;;1.47;1.37;;;29.90;99.90;;;;;;5043725;28;20462;-54
2022/06/23 13:28:31;;;;;;;4.27;1.30;;;29.80;99.90;;;;;;5039675;28;20909;-55
2022/06/23 13:31:04;;;;;;;4.97;1.37;;;29.90;99.90;;;;;;5045439;28;21033;-54
2022/06/23 13:33:37;;;;;;;3.53;1.87;;;30.10;99.90;;;;;;5043238;28;20500;-55
2022/06/23 13:36:13;;;;;;;1.30;1.20;;;30.10;99.90;;;;;;5047105;28;20454;-54